LNE1414 SEGU-SEQM
Flight info
| Callsign | LNE1414 |
|---|---|
| Flight time | 0h 33m |
| Altitude | 23000 |
| Route | USOGI1 PAMIS G675 QIT |
| Aircraft | A319/M-SDE3FGHIRWY/LB1 |
Departure
| Time | 2026-05-05 16:46 |
|---|---|
| Airport | José Joaquín de Olmedo International Airport (SEGU) |
Arrival
| Time | 2026-05-05 17:20 |
|---|---|
| Airport | Mariscal Sucre International Airport (SEQM) |
| Time | Latitude | Longitude | Altitude | Speed | Heading |
|---|---|---|---|---|---|
| 2026-05-05 16:28 | -2.15023 | -79.88416 | 22 ft | 0 kts | 299° |
| 2026-05-05 16:34 | -2.15035 | -79.88396 | 25 ft | 4 kts | 300° |
| 2026-05-05 16:34 | -2.15048 | -79.88373 | 26 ft | 4 kts | 300° |
| 2026-05-05 16:34 | -2.15062 | -79.88349 | 24 ft | 4 kts | 301° |
| 2026-05-05 16:35 | -2.15023 | -79.88416 | 22 ft | 0 kts | 299° |
| 2026-05-05 16:39 | -2.15034 | -79.88398 | 22 ft | 4 kts | 301° |
| 2026-05-05 16:39 | -2.15049 | -79.88376 | 22 ft | 4 kts | 315° |
| 2026-05-05 16:40 | -2.15068 | -79.88364 | 22 ft | 4 kts | 17° |
| 2026-05-05 16:40 | -2.15073 | -79.88365 | 22 ft | 0 kts | 32° |
| 2026-05-05 16:42 | -2.15063 | -79.88359 | 22 ft | 3 kts | 32° |
| 2026-05-05 16:42 | -2.15041 | -79.88345 | 22 ft | 5 kts | 30° |
| 2026-05-05 16:42 | -2.15007 | -79.88326 | 22 ft | 6 kts | 30° |
| 2026-05-05 16:43 | -2.14962 | -79.88301 | 22 ft | 8 kts | 30° |
| 2026-05-05 16:43 | -2.14907 | -79.88269 | 22 ft | 10 kts | 30° |
| 2026-05-05 16:43 | -2.14839 | -79.88230 | 22 ft | 12 kts | 29° |
| 2026-05-05 16:43 | -2.14782 | -79.88176 | 21 ft | 12 kts | 86° |
| 2026-05-05 16:44 | -2.14823 | -79.88096 | 24 ft | 14 kts | 121° |
| 2026-05-05 16:44 | -2.14819 | -79.88025 | 22 ft | 10 kts | 40° |
| 2026-05-05 16:44 | -2.14748 | -79.87986 | 23 ft | 13 kts | 30° |
| 2026-05-05 16:44 | -2.14672 | -79.87937 | 23 ft | 11 kts | 46° |
| 2026-05-05 16:45 | -2.14644 | -79.87864 | 23 ft | 12 kts | 75° |
| 2026-05-05 16:45 | -2.14636 | -79.87781 | 21 ft | 12 kts | 103° |
| 2026-05-05 16:45 | -2.14704 | -79.87766 | 23 ft | 13 kts | 208° |
| 2026-05-05 16:45 | -2.14873 | -79.87865 | 23 ft | 54 kts | 210° |
| 2026-05-05 16:46 | -2.15363 | -79.88148 | 22 ft | 109 kts | 210° |
| 2026-05-05 16:46 | -2.16168 | -79.88608 | 95 ft | 150 kts | 210° |
| 2026-05-05 16:46 | -2.17044 | -79.89107 | 754 ft | 141 kts | 210° |
| 2026-05-05 16:46 | -2.17914 | -79.89595 | 1294 ft | 146 kts | 210° |
| 2026-05-05 16:47 | -2.18845 | -79.90116 | 1640 ft | 166 kts | 210° |
| 2026-05-05 16:47 | -2.19922 | -79.90721 | 2022 ft | 189 kts | 210° |
| 2026-05-05 16:47 | -2.20960 | -79.91649 | 2389 ft | 215 kts | 243° |
| 2026-05-05 16:47 | -2.21166 | -79.93186 | 2801 ft | 241 kts | 283° |
| 2026-05-05 16:48 | -2.20248 | -79.94661 | 3377 ft | 263 kts | 321° |
| 2026-05-05 16:48 | -2.18532 | -79.95320 | 4266 ft | 273 kts | 357° |
| 2026-05-05 16:48 | -2.16656 | -79.94985 | 5220 ft | 278 kts | 20° |
| 2026-05-05 16:48 | -2.14893 | -79.94228 | 6171 ft | 281 kts | 26° |
| 2026-05-05 16:49 | -2.13098 | -79.93393 | 7065 ft | 285 kts | 26° |
| 2026-05-05 16:49 | -2.11290 | -79.92547 | 7999 ft | 288 kts | 26° |
| 2026-05-05 16:49 | -2.09449 | -79.91731 | 8944 ft | 291 kts | 22° |
| 2026-05-05 16:49 | -2.07508 | -79.91107 | 9887 ft | 295 kts | 17° |
| 2026-05-05 16:50 | -2.05472 | -79.90582 | 10395 ft | 313 kts | 15° |
| 2026-05-05 16:50 | -2.03271 | -79.90066 | 10610 ft | 337 kts | 15° |
| 2026-05-05 16:50 | -2.00933 | -79.89524 | 10999 ft | 350 kts | 15° |
| 2026-05-05 16:50 | -1.98544 | -79.88947 | 11649 ft | 355 kts | 17° |
| 2026-05-05 16:51 | -1.96246 | -79.88042 | 12278 ft | 356 kts | 30° |
| 2026-05-05 16:51 | -1.94193 | -79.86658 | 12935 ft | 357 kts | 42° |
| 2026-05-05 16:51 | -1.92461 | -79.84878 | 13568 ft | 359 kts | 51° |
| 2026-05-05 16:51 | -1.90833 | -79.82976 | 14145 ft | 361 kts | 51° |
| 2026-05-05 16:52 | -1.89187 | -79.81064 | 14690 ft | 364 kts | 50° |
| 2026-05-05 16:52 | -1.87521 | -79.79141 | 15231 ft | 367 kts | 50° |
| 2026-05-05 16:52 | -1.85837 | -79.77201 | 15756 ft | 371 kts | 50° |
| 2026-05-05 16:52 | -1.84155 | -79.75263 | 16290 ft | 375 kts | 50° |
| 2026-05-05 16:53 | -1.82415 | -79.73261 | 16832 ft | 378 kts | 50° |
| 2026-05-05 16:53 | -1.80701 | -79.71290 | 17365 ft | 381 kts | 50° |
| 2026-05-05 16:53 | -1.78956 | -79.69277 | 17919 ft | 385 kts | 50° |
| 2026-05-05 16:53 | -1.77192 | -79.67240 | 18419 ft | 388 kts | 50° |
| 2026-05-05 16:54 | -1.75415 | -79.65189 | 18886 ft | 391 kts | 50° |
| 2026-05-05 16:54 | -1.73628 | -79.63124 | 19370 ft | 394 kts | 50° |
| 2026-05-05 16:54 | -1.71827 | -79.61047 | 19851 ft | 397 kts | 50° |
| 2026-05-05 16:54 | -1.70013 | -79.58958 | 20350 ft | 399 kts | 49° |
| 2026-05-05 16:55 | -1.68221 | -79.56896 | 20932 ft | 389 kts | 49° |
| 2026-05-05 16:55 | -1.66464 | -79.54873 | 21169 ft | 382 kts | 50° |
| 2026-05-05 16:55 | -1.64723 | -79.52868 | 21439 ft | 382 kts | 50° |
| 2026-05-05 16:55 | -1.62982 | -79.50860 | 21686 ft | 383 kts | 50° |
| 2026-05-05 16:56 | -1.61239 | -79.48850 | 21926 ft | 384 kts | 50° |
| 2026-05-05 16:56 | -1.59382 | -79.46931 | 22171 ft | 385 kts | 41° |
| 2026-05-05 16:56 | -1.57192 | -79.45373 | 22427 ft | 388 kts | 31° |
| 2026-05-05 16:56 | -1.54851 | -79.44021 | 22677 ft | 389 kts | 31° |
| 2026-05-05 16:57 | -1.52528 | -79.42679 | 22911 ft | 391 kts | 31° |
| 2026-05-05 16:57 | -1.50178 | -79.41318 | 23035 ft | 386 kts | 31° |
| 2026-05-05 16:57 | -1.47899 | -79.40001 | 23070 ft | 371 kts | 31° |
| 2026-05-05 16:57 | -1.45696 | -79.38726 | 23070 ft | 362 kts | 31° |
| 2026-05-05 16:58 | -1.43526 | -79.37466 | 23070 ft | 359 kts | 31° |
| 2026-05-05 16:58 | -1.41369 | -79.36211 | 23070 ft | 358 kts | 31° |
| 2026-05-05 16:58 | -1.39218 | -79.34961 | 23071 ft | 358 kts | 32° |
| 2026-05-05 16:58 | -1.37062 | -79.33706 | 23070 ft | 358 kts | 31° |
| 2026-05-05 16:59 | -1.34904 | -79.32453 | 23084 ft | 358 kts | 31° |
| 2026-05-05 16:59 | -1.32747 | -79.31202 | 23084 ft | 357 kts | 31° |
| 2026-05-05 16:59 | -1.30593 | -79.29954 | 23085 ft | 358 kts | 31° |
| 2026-05-05 16:59 | -1.28438 | -79.28703 | 23086 ft | 358 kts | 31° |
| 2026-05-05 17:00 | -1.26281 | -79.27451 | 23158 ft | 358 kts | 31° |
| 2026-05-05 17:00 | -1.24111 | -79.26186 | 23157 ft | 362 kts | 32° |
| 2026-05-05 17:00 | -1.21950 | -79.24928 | 23157 ft | 358 kts | 31° |
| 2026-05-05 17:00 | -1.19824 | -79.23694 | 23168 ft | 358 kts | 31° |
| 2026-05-05 17:01 | -1.17669 | -79.22443 | 23167 ft | 357 kts | 31° |
| 2026-05-05 17:01 | -1.15518 | -79.21194 | 23166 ft | 358 kts | 31° |
| 2026-05-05 17:01 | -1.13365 | -79.19942 | 23165 ft | 358 kts | 31° |
| 2026-05-05 17:01 | -1.11215 | -79.18692 | 23169 ft | 357 kts | 31° |
| 2026-05-05 17:02 | -1.09065 | -79.17444 | 23164 ft | 357 kts | 32° |
| 2026-05-05 17:02 | -1.06916 | -79.16195 | 23167 ft | 357 kts | 31° |
| 2026-05-05 17:02 | -1.04761 | -79.14945 | 23169 ft | 357 kts | 31° |
| 2026-05-05 17:02 | -1.02608 | -79.13700 | 23184 ft | 356 kts | 31° |
| 2026-05-05 17:03 | -1.00470 | -79.12465 | 23258 ft | 354 kts | 31° |
| 2026-05-05 17:03 | -0.98335 | -79.11231 | 23261 ft | 353 kts | 31° |
| 2026-05-05 17:03 | -0.96212 | -79.10001 | 23255 ft | 352 kts | 31° |
| 2026-05-05 17:03 | -0.94121 | -79.08788 | 23258 ft | 352 kts | 32° |
| 2026-05-05 17:04 | -0.92007 | -79.07557 | 23249 ft | 351 kts | 32° |
| 2026-05-05 17:04 | -0.89892 | -79.06322 | 23240 ft | 351 kts | 31° |
| 2026-05-05 17:04 | -0.87772 | -79.05089 | 23247 ft | 351 kts | 32° |
| 2026-05-05 17:04 | -0.85663 | -79.03867 | 23242 ft | 350 kts | 31° |
| 2026-05-05 17:05 | -0.83552 | -79.02644 | 23232 ft | 349 kts | 32° |
| 2026-05-05 17:05 | -0.81449 | -79.01423 | 23236 ft | 350 kts | 32° |
| 2026-05-05 17:05 | -0.79436 | -79.00110 | 23234 ft | 349 kts | 38° |
| 2026-05-05 17:05 | -0.77479 | -78.98675 | 23236 ft | 349 kts | 37° |
| 2026-05-05 17:06 | -0.75523 | -78.97248 | 23276 ft | 348 kts | 37° |
| 2026-05-05 17:06 | -0.73563 | -78.95827 | 23265 ft | 348 kts | 37° |
| 2026-05-05 17:06 | -0.71601 | -78.94406 | 23265 ft | 349 kts | 37° |
| 2026-05-05 17:06 | -0.69636 | -78.92984 | 23249 ft | 348 kts | 37° |
| 2026-05-05 17:07 | -0.67687 | -78.91571 | 22875 ft | 345 kts | 37° |
| 2026-05-05 17:07 | -0.65744 | -78.90162 | 22443 ft | 344 kts | 37° |
| 2026-05-05 17:07 | -0.63810 | -78.88757 | 22062 ft | 341 kts | 37° |
| 2026-05-05 17:07 | -0.61915 | -78.87379 | 21628 ft | 340 kts | 37° |
| 2026-05-05 17:08 | -0.60008 | -78.85993 | 21222 ft | 338 kts | 37° |
| 2026-05-05 17:08 | -0.58113 | -78.84616 | 20814 ft | 335 kts | 37° |
| 2026-05-05 17:08 | -0.56230 | -78.83248 | 20453 ft | 334 kts | 37° |
| 2026-05-05 17:08 | -0.54356 | -78.81884 | 20095 ft | 331 kts | 38° |
| 2026-05-05 17:09 | -0.52592 | -78.80420 | 19696 ft | 328 kts | 44° |
| 2026-05-05 17:09 | -0.51022 | -78.78774 | 19297 ft | 326 kts | 51° |
| 2026-05-05 17:09 | -0.49669 | -78.76968 | 18926 ft | 323 kts | 57° |
| 2026-05-05 17:09 | -0.48556 | -78.75058 | 18546 ft | 322 kts | 63° |
| 2026-05-05 17:10 | -0.47651 | -78.73023 | 18168 ft | 319 kts | 69° |
| 2026-05-05 17:10 | -0.46974 | -78.70917 | 17714 ft | 318 kts | 76° |
| 2026-05-05 17:10 | -0.46438 | -78.68787 | 17254 ft | 314 kts | 76° |
| 2026-05-05 17:10 | -0.45907 | -78.66712 | 17134 ft | 301 kts | 75° |
| 2026-05-05 17:11 | -0.45391 | -78.64720 | 16737 ft | 293 kts | 75° |
| 2026-05-05 17:11 | -0.44829 | -78.62777 | 16385 ft | 290 kts | 71° |
| 2026-05-05 17:11 | -0.44105 | -78.60913 | 15951 ft | 285 kts | 68° |
| 2026-05-05 17:11 | -0.43260 | -78.59134 | 15480 ft | 282 kts | 64° |
| 2026-05-05 17:12 | -0.42294 | -78.57433 | 15090 ft | 277 kts | 60° |
| 2026-05-05 17:12 | -0.41240 | -78.55869 | 14816 ft | 269 kts | 56° |
| 2026-05-05 17:12 | -0.40068 | -78.54414 | 14354 ft | 269 kts | 51° |
| 2026-05-05 17:12 | -0.39219 | -78.53506 | 14054 ft | 268 kts | 49° |
| 2026-05-05 17:13 | -0.37874 | -78.52218 | 13553 ft | 267 kts | 45° |
| 2026-05-05 17:13 | -0.36487 | -78.51054 | 13395 ft | 253 kts | 41° |
| 2026-05-05 17:13 | -0.35083 | -78.50018 | 13203 ft | 251 kts | 38° |
| 2026-05-05 17:13 | -0.33614 | -78.49053 | 12742 ft | 254 kts | 37° |
| 2026-05-05 17:14 | -0.32308 | -78.47884 | 12325 ft | 247 kts | 48° |
| 2026-05-05 17:14 | -0.31344 | -78.46506 | 11880 ft | 238 kts | 63° |
| 2026-05-05 17:14 | -0.30747 | -78.45026 | 11551 ft | 222 kts | 76° |
| 2026-05-05 17:14 | -0.30484 | -78.43543 | 11269 ft | 214 kts | 86° |
| 2026-05-05 17:15 | -0.30485 | -78.42083 | 11039 ft | 206 kts | 92° |
| 2026-05-05 17:15 | -0.30522 | -78.40651 | 10963 ft | 206 kts | 92° |
| 2026-05-05 17:15 | -0.30475 | -78.39238 | 10869 ft | 206 kts | 82° |
| 2026-05-05 17:15 | -0.30048 | -78.37873 | 10731 ft | 207 kts | 66° |
| 2026-05-05 17:16 | -0.29268 | -78.36690 | 10599 ft | 193 kts | 53° |
| 2026-05-05 17:16 | -0.28347 | -78.35862 | 10477 ft | 166 kts | 40° |
| 2026-05-05 17:16 | -0.27365 | -78.35311 | 10364 ft | 160 kts | 27° |
| 2026-05-05 17:16 | -0.26316 | -78.34990 | 10265 ft | 157 kts | 14° |
| 2026-05-05 17:17 | -0.25229 | -78.34898 | 10170 ft | 157 kts | 3° |
| 2026-05-05 17:17 | -0.24123 | -78.34949 | 9956 ft | 159 kts | 0° |
| 2026-05-05 17:17 | -0.23030 | -78.34995 | 9742 ft | 156 kts | 2° |
| 2026-05-05 17:17 | -0.21957 | -78.35040 | 9522 ft | 152 kts | 359° |
| 2026-05-05 17:18 | -0.20903 | -78.35084 | 9315 ft | 153 kts | 1° |
| 2026-05-05 17:18 | -0.19848 | -78.35128 | 9098 ft | 152 kts | 360° |
| 2026-05-05 17:18 | -0.18790 | -78.35173 | 8895 ft | 150 kts | 1° |
| 2026-05-05 17:18 | -0.17752 | -78.35219 | 8597 ft | 150 kts | 4° |
| 2026-05-05 17:19 | -0.16714 | -78.35270 | 8330 ft | 145 kts | 5° |
| 2026-05-05 17:19 | -0.15708 | -78.35315 | 8123 ft | 146 kts | 359° |
| 2026-05-05 17:19 | -0.14683 | -78.35349 | 8057 ft | 146 kts | 1° |
| 2026-05-05 17:19 | -0.13694 | -78.35393 | 7889 ft | 131 kts | 359° |
| 2026-05-05 17:20 | -0.12932 | -78.35422 | 7863 ft | 85 kts | 358° |
| 2026-05-05 17:20 | -0.12626 | -78.35437 | 7851 ft | 20 kts | 354° |
| 2026-05-05 17:20 | -0.12526 | -78.35464 | 7844 ft | 19 kts | 336° |
| 2026-05-05 17:20 | -0.12443 | -78.35539 | 7842 ft | 13 kts | 319° |
| 2026-05-05 17:21 | -0.12431 | -78.35608 | 7839 ft | 11 kts | 213° |
| 2026-05-05 17:21 | -0.12507 | -78.35609 | 7845 ft | 11 kts | 180° |
| 2026-05-05 17:21 | -0.12586 | -78.35606 | 7848 ft | 12 kts | 176° |
| 2026-05-05 17:22 | -0.12690 | -78.35653 | 7852 ft | 10 kts | 269° |
| 2026-05-05 17:22 | -0.12693 | -78.35735 | 7852 ft | 13 kts | 266° |
| 2026-05-05 17:22 | -0.12686 | -78.35819 | 7851 ft | 10 kts | 308° |
| 2026-05-05 17:22 | -0.12610 | -78.35839 | 7848 ft | 10 kts | 307° |
| 2026-05-05 17:23 | -0.12611 | -78.35864 | 7848 ft | 4 kts | 266° |
| 2026-05-05 17:23 | -0.12613 | -78.35903 | 7848 ft | 7 kts | 268° |
| 2026-05-05 17:23 | -0.12614 | -78.35922 | 7848 ft | 0 kts | 269° |